Antlers, Colorado
Current Conditions -  °F | °C
As of 12:53 PM on Sunday 23 Nov 2014 (Local Time) from KEEO Reporting Station
Overcast Overcast  
Wind Chill: 22°   Ceiling: 4900
Heat Index: 31°   Visibility: 10mi
Dew Point: 20°   Wind: 12mph
Humidity: 64%   Direction: 300°WNW
Pressure: 29.98"   Gusts: 23mph
Location:  39.7934°N, 108.135°W
Report Text: KEEO 231953Z AUTO 30010G20KT 10SM SCT039 BKN049 OVC055 M01/M07 A2998 RMK AO2 SNE1858 SLP161 P0000 T10061067
Loading
Personal Weather Stations






























Interactive Weather Map New forecast layout! Learn more

10-Day Weather Forecast

Advertisements
Track Severe Weather on mobile